createdAt,value
2019-04-20T00:00:09.816Z,279.96
2019-04-20T00:01:40.882Z,279.84
2019-04-20T00:03:11.692Z,279.84
2019-04-20T00:04:43.106Z,279.9
2019-04-20T00:06:13.211Z,279.71
2019-04-20T00:07:43.825Z,279.71
2019-04-20T00:09:19.265Z,279.71
2019-04-20T00:11:09.596Z,279.59
2019-04-20T00:13:23.891Z,279.59
2019-04-20T00:15:30.143Z,279.59
2019-04-20T00:16:58.892Z,279.59
2019-04-20T00:18:34.277Z,279.52
2019-04-20T00:20:26.246Z,279.59
2019-04-20T00:22:08.006Z,279.46
2019-04-20T00:23:46.751Z,279.46
2019-04-20T00:25:22.155Z,279.34
2019-04-20T00:27:55.318Z,279.34
2019-04-20T00:30:31.288Z,279.27
2019-04-20T00:33:11.946Z,279.27
2019-04-20T00:35:29.771Z,279.4
2019-04-20T00:37:02.291Z,279.34
2019-04-20T00:38:39.126Z,279.27
2019-04-20T00:40:22.020Z,279.4
2019-04-20T00:42:00.123Z,279.21
2019-04-20T00:43:42.092Z,279.21
2019-04-20T00:45:18.968Z,279.21
2019-04-20T00:47:30.294Z,279.09
2019-04-20T00:49:48.043Z,279.15
2019-04-20T00:52:27.225Z,279.09
2019-04-20T00:54:47.364Z,279.02
2019-04-20T00:56:18.203Z,279.15
2019-04-20T00:57:53.348Z,278.96
2019-04-20T01:00:10.828Z,279.02
2019-04-20T01:03:09.418Z,278.96
2019-04-20T01:06:06.126Z,278.77
2019-04-20T01:08:29.933Z,278.9
2019-04-20T01:10:00.421Z,278.84
2019-04-20T01:11:36.519Z,278.71
2019-04-20T01:13:17.272Z,278.77
2019-04-20T01:14:59.067Z,278.77
2019-04-20T01:17:11.135Z,278.77
2019-04-20T01:18:40.493Z,278.84
2019-04-20T01:20:11.856Z,278.71
2019-04-20T01:21:42.925Z,278.65
2019-04-20T01:23:42.797Z,278.77
2019-04-20T01:25:35.251Z,278.65
2019-04-20T01:27:31.987Z,278.59
2019-04-20T01:29:51.343Z,278.65
2019-04-20T01:32:07.625Z,278.52
2019-04-20T01:34:44.952Z,278.46
2019-04-20T01:37:25.639Z,278.46
2019-04-20T01:39:50.729Z,278.34
2019-04-20T01:41:31.762Z,278.52
2019-04-20T01:43:01.615Z,278.34
2019-04-20T01:44:36.694Z,278.34
2019-04-20T01:46:21.843Z,278.27
2019-04-20T01:48:01.168Z,278.21
2019-04-20T01:49:40.594Z,278.21
2019-04-20T01:51:43.872Z,278.15
2019-04-20T01:56:21.591Z,278.21
2019-04-20T01:58:58.033Z,278.27
2019-04-20T02:01:27.962Z,278.15
2019-04-20T02:03:08.547Z,278.27
2019-04-20T02:04:43.883Z,278.15
2019-04-20T02:06:38.895Z,278.15
2019-04-20T02:08:28.074Z,278.21
2019-04-20T02:10:03.462Z,278.21
2019-04-20T02:11:46.851Z,278.09
2019-04-20T02:13:42.089Z,278.02
2019-04-20T02:18:22.516Z,278.09
2019-04-20T02:20:42.695Z,277.96
2019-04-20T02:23:27.883Z,278.09
2019-04-20T02:25:25.006Z,277.96
2019-04-20T02:26:57.927Z,278.02
2019-04-20T02:28:53.434Z,278.09
2019-04-20T02:31:54.834Z,278.02
2019-04-20T02:36:18.798Z,278.15
2019-04-20T02:39:50.675Z,278.09
2019-04-20T02:43:37.335Z,277.9
2019-04-20T02:56:10.804Z,277.84
2019-04-20T05:31:54.269Z,278.15
2019-04-20T05:34:07.942Z,278.27
2019-04-20T05:37:14.889Z,278.52
2019-04-20T05:40:45.801Z,278.65
2019-04-20T05:46:26.063Z,278.96
2019-04-20T05:49:29.539Z,279.34
2019-04-20T05:52:41.848Z,279.52
2019-04-20T05:55:32.860Z,279.65
2019-04-20T05:58:21.568Z,279.84
2019-04-20T06:01:31.625Z,280.02
2019-04-20T06:04:31.274Z,280.09
2019-04-20T06:07:29.261Z,280.27
2019-04-20T06:11:00.265Z,280.59
2019-04-20T06:14:17.069Z,280.9
2019-04-20T06:16:55.590Z,281.02
2019-04-20T06:19:39.077Z,281.21
2019-04-20T06:23:03.020Z,281.4
2019-04-20T06:26:18.993Z,281.59
2019-04-20T06:28:49.788Z,281.77
2019-04-20T06:31:45.277Z,281.96
2019-04-20T06:34:53.241Z,282.02
2019-04-20T06:38:42.080Z,282.4
2019-04-20T06:42:14.611Z,282.65
2019-04-20T06:44:39.193Z,283.02
2019-04-20T06:48:05.525Z,283.09
2019-04-20T06:50:48.141Z,283.21
2019-04-20T06:53:46.810Z,283.27
2019-04-20T06:56:28.872Z,283.59
2019-04-20T06:59:37.420Z,283.77
2019-04-20T07:02:47.997Z,284.34
2019-04-20T07:06:33.719Z,284.21
2019-04-20T07:09:39.499Z,284.21
2019-04-20T07:12:27.022Z,284.27
2019-04-20T07:15:09.229Z,284.59
2019-04-20T07:17:53.179Z,284.77
2019-04-20T07:20:50.011Z,284.96
2019-04-20T07:24:30.400Z,285.02
2019-04-20T07:27:47.768Z,285.15
2019-04-20T07:30:29.466Z,285.27
2019-04-20T07:36:24.057Z,285.65
2019-04-20T07:40:20.010Z,285.65
2019-04-20T07:43:38.874Z,285.9
2019-04-20T07:47:21.633Z,286.09
2019-04-20T07:50:28.947Z,286.27
2019-04-20T07:52:43.724Z,286.46
2019-04-20T07:55:43.764Z,286.52
2019-04-20T07:58:10.671Z,286.65
2019-04-20T08:00:48.026Z,286.71
2019-04-20T08:04:00.934Z,286.9
2019-04-20T08:06:27.773Z,287.02
2019-04-20T08:08:37.219Z,287.09
2019-04-20T08:11:13.620Z,287.27
2019-04-20T08:14:23.873Z,287.4
2019-04-20T08:17:53.738Z,287.65
2019-04-20T08:23:38.452Z,287.9
2019-04-20T08:26:10.715Z,288.02
2019-04-20T08:28:06.236Z,288.09
2019-04-20T08:30:33.391Z,288.46
2019-04-20T08:33:09.347Z,288.52
2019-04-20T08:36:26.706Z,288.71
2019-04-20T08:39:44.616Z,288.59
2019-04-20T08:42:10.070Z,288.9
2019-04-20T08:45:34.434Z,289.02
2019-04-20T08:48:55.659Z,289.27
2019-04-20T08:52:22.723Z,289.46
2019-04-20T08:55:37.056Z,289.59
2019-04-20T08:57:49.310Z,289.9
2019-04-20T08:59:19.292Z,289.84
2019-04-20T09:00:55.259Z,289.77
2019-04-20T09:02:48.724Z,289.65
2019-04-20T09:04:56.831Z,289.77
2019-04-20T09:07:05.338Z,289.84
2019-04-20T09:09:11.498Z,290.02
2019-04-20T09:12:14.324Z,290.34
2019-04-20T09:14:38.288Z,290.4
2019-04-20T09:16:08.715Z,290.4
2019-04-20T09:17:46.280Z,290.52
2019-04-20T09:19:50.164Z,290.65
2019-04-20T09:21:54.805Z,290.77
2019-04-20T09:24:26.613Z,290.77
2019-04-20T09:27:40.439Z,290.9
2019-04-20T09:30:02.986Z,291.09
2019-04-20T09:32:43.780Z,291.21
2019-04-20T09:35:47.170Z,291.21
2019-04-20T09:38:24.808Z,291.46
2019-04-20T09:40:55.258Z,291.52
2019-04-20T09:43:11.263Z,291.71
2019-04-20T09:44:49.805Z,291.71
2019-04-20T09:48:31.673Z,291.65
2019-04-20T09:50:37.490Z,291.77
2019-04-20T09:53:19.423Z,291.96
2019-04-20T09:55:36.223Z,292.09
2019-04-20T09:58:04.800Z,292.21
2019-04-20T10:00:50.553Z,292.4
2019-04-20T10:03:00.378Z,292.65
2019-04-20T10:04:31.275Z,292.65
2019-04-20T10:06:01.493Z,292.59
2019-04-20T10:07:34.256Z,292.59
2019-04-20T10:09:20.279Z,292.65
2019-04-20T10:11:09.724Z,292.77
2019-04-20T10:12:39.810Z,292.77
2019-04-20T10:14:08.569Z,292.77
2019-04-20T10:15:39.606Z,292.9
2019-04-20T10:17:09.773Z,292.96
2019-04-20T10:18:45.414Z,293.02
2019-04-20T10:20:27.285Z,293.09
2019-04-20T10:22:06.578Z,293.15
2019-04-20T10:23:38.688Z,293.15
2019-04-20T10:25:08.746Z,293.15
2019-04-20T10:26:40.751Z,293.21
2019-04-20T10:28:09.531Z,293.27
2019-04-20T10:29:39.805Z,293.34
2019-04-20T10:31:10.639Z,293.4
2019-04-20T10:32:45.094Z,293.4
2019-04-20T10:34:22.632Z,293.52
2019-04-20T10:35:53.898Z,293.65
2019-04-20T10:37:23.845Z,293.77
2019-04-20T10:38:54.975Z,293.71
2019-04-20T10:40:37.496Z,293.46
2019-04-20T10:42:38.493Z,293.52
2019-04-20T10:44:09.033Z,293.59
2019-04-20T10:45:39.150Z,293.77
2019-04-20T10:47:09.132Z,293.84
2019-04-20T10:48:43.933Z,293.96
2019-04-20T10:50:27.693Z,294.02
2019-04-20T10:51:57.704Z,294.09
2019-04-20T10:53:27.905Z,294.15
2019-04-20T10:54:56.733Z,294.27
2019-04-20T10:56:27.509Z,294.34
2019-04-20T10:57:57.690Z,294.46
2019-04-20T10:59:27.745Z,294.27
2019-04-20T11:01:01.680Z,294.34
2019-04-20T11:02:31.866Z,294.27
2019-04-20T11:04:01.213Z,294.09
2019-04-20T11:05:30.816Z,294.21
2019-04-20T11:07:00.772Z,294.15
2019-04-20T11:08:30.631Z,294.27
2019-04-20T11:10:07.636Z,294.4
2019-04-20T11:11:58.692Z,294.4
2019-04-20T11:13:29.605Z,294.46
2019-04-20T11:15:00.381Z,294.46
2019-04-20T11:16:30.599Z,294.4
2019-04-20T11:17:59.933Z,294.59
2019-04-20T11:19:29.402Z,294.59
2019-04-20T11:20:59.336Z,294.59
2019-04-20T11:22:28.338Z,294.4
2019-04-20T11:23:58.892Z,294.71
2019-04-20T11:25:28.496Z,294.59
2019-04-20T11:26:58.389Z,294.9
2019-04-20T11:28:28.334Z,294.84
2019-04-20T11:29:58.279Z,294.84
2019-04-20T11:31:36.163Z,294.9
2019-04-20T11:33:20.312Z,295.09
2019-04-20T11:34:49.272Z,295.15
2019-04-20T11:36:27.148Z,295.27
2019-04-20T11:37:57.453Z,295.34
2019-04-20T11:39:27.700Z,295.4
2019-04-20T11:41:07.061Z,295.21
2019-04-20T11:42:55.375Z,295.15
2019-04-20T11:44:26.902Z,295.4
2019-04-20T11:46:02.759Z,295.4
2019-04-20T11:47:33.634Z,295.02
2019-04-20T11:49:03.690Z,295.21
2019-04-20T11:50:35.614Z,295.46
2019-04-20T11:52:06.173Z,295.59
2019-04-20T11:53:36.229Z,295.65
2019-04-20T11:55:06.653Z,295.71
2019-04-20T11:56:40.134Z,295.9
2019-04-20T11:58:12.172Z,295.9
2019-04-20T11:59:43.135Z,295.84
2019-04-20T12:01:18.663Z,295.9
2019-04-20T12:03:10.774Z,295.84
2019-04-20T12:05:24.542Z,295.9
2019-04-20T12:07:18.927Z,295.96
2019-04-20T12:08:49.693Z,295.9
2019-04-20T12:10:22.656Z,295.84
2019-04-20T12:12:08.725Z,295.96
2019-04-20T12:14:06.904Z,295.71
2019-04-20T12:15:38.378Z,295.84
2019-04-20T12:17:07.876Z,295.77
2019-04-20T12:18:40.173Z,295.77
2019-04-20T12:20:10.333Z,296.02
2019-04-20T12:21:40.848Z,295.84
2019-04-20T12:23:12.639Z,296.02
2019-04-20T12:24:42.299Z,296.27
2019-04-20T12:26:13.013Z,296.27
2019-04-20T12:27:48.506Z,296.4
2019-04-20T12:29:27.922Z,296.59
2019-04-20T12:31:03.881Z,296.4
2019-04-20T12:32:52.456Z,296.21
2019-04-20T12:34:30.743Z,296.15
2019-04-20T12:36:00.899Z,296.02
2019-04-20T12:37:31.209Z,296.15
2019-04-20T12:39:01.198Z,296.4
2019-04-20T12:40:32.333Z,296.34
2019-04-20T12:42:04.453Z,296.4
2019-04-20T12:43:37.856Z,296.52
2019-04-20T12:45:07.994Z,296.4
2019-04-20T12:46:38.191Z,296.52
2019-04-20T12:48:08.416Z,296.27
2019-04-20T12:49:37.845Z,296.21
2019-04-20T12:51:07.814Z,296.09
2019-04-20T12:52:38.670Z,296.21
2019-04-20T12:54:08.830Z,296.15
2019-04-20T12:55:39.296Z,296.34
2019-04-20T12:57:08.881Z,296.4
2019-04-20T12:58:40.457Z,296.52
2019-04-20T13:00:12.570Z,296.71
2019-04-20T13:01:41.537Z,296.52
2019-04-20T13:03:11.625Z,296.84
2019-04-20T13:04:41.509Z,296.9
2019-04-20T13:06:10.337Z,297.09
2019-04-20T13:07:44.710Z,297.15
2019-04-20T13:09:26.579Z,297.27
2019-04-20T13:10:56.493Z,297.4
2019-04-20T13:12:28.965Z,297.46
2019-04-20T13:14:00.173Z,297.52
2019-04-20T13:15:31.955Z,297.46
2019-04-20T13:17:03.877Z,297.34
2019-04-20T13:18:34.988Z,297.27
2019-04-20T13:20:05.851Z,297.59
2019-04-20T13:21:36.774Z,297.52
2019-04-20T13:23:07.488Z,297.59
2019-04-20T13:24:37.044Z,297.59
2019-04-20T13:26:08.631Z,297.52
2019-04-20T13:27:43.053Z,297.34
2019-04-20T13:29:15.220Z,297.34
2019-04-20T13:30:44.012Z,297.15
2019-04-20T13:32:13.972Z,297.52
2019-04-20T13:33:45.212Z,297.46
2019-04-20T13:35:16.243Z,297.52
2019-04-20T13:36:46.348Z,297.52
2019-04-20T13:38:16.335Z,297.59
2019-04-20T13:39:47.130Z,297.21
2019-04-20T13:41:17.914Z,297.34
2019-04-20T13:42:48.012Z,297.27
2019-04-20T13:44:18.016Z,297.34
2019-04-20T13:45:48.906Z,297.4
2019-04-20T13:47:20.942Z,297.65
2019-04-20T13:48:53.156Z,297.4
2019-04-20T13:50:22.179Z,297.52
2019-04-20T13:51:54.921Z,297.84
2019-04-20T13:53:23.771Z,297.77
2019-04-20T13:54:53.984Z,297.77
2019-04-20T13:56:25.838Z,297.59
2019-04-20T13:57:56.093Z,297.15
2019-04-20T13:59:28.411Z,297.34
2019-04-20T14:00:59.212Z,297.52
2019-04-20T14:02:30.885Z,297.71
2019-04-20T14:04:00.758Z,297.71
2019-04-20T14:05:30.755Z,297.84
2019-04-20T14:06:59.612Z,297.52
2019-04-20T14:08:29.771Z,297.84
2019-04-20T14:09:59.583Z,297.77
2019-04-20T14:11:29.693Z,297.96
2019-04-20T14:13:05.012Z,298.02
2019-04-20T14:14:49.051Z,297.65
2019-04-20T14:16:19.132Z,297.46
2019-04-20T14:17:51.068Z,297.46
2019-04-20T14:19:21.290Z,297.34
2019-04-20T14:20:52.112Z,297.71
2019-04-20T14:22:23.106Z,297.84
2019-04-20T14:23:53.212Z,297.84
2019-04-20T14:25:24.866Z,297.84
2019-04-20T14:26:56.931Z,297.9
2019-04-20T14:28:27.294Z,297.96
2019-04-20T14:29:57.430Z,298.09
2019-04-20T14:31:29.890Z,298.15
2019-04-20T14:32:59.053Z,298.09
2019-04-20T14:34:29.109Z,298.15
2019-04-20T14:35:59.140Z,298.15
2019-04-20T14:37:29.060Z,297.65
2019-04-20T14:39:02.388Z,297.77
2019-04-20T14:40:32.439Z,297.96
2019-04-20T14:42:04.233Z,298.02
2019-04-20T14:43:58.414Z,298.09
2019-04-20T14:45:29.373Z,298.27
2019-04-20T14:46:58.172Z,298.27
2019-04-20T14:48:28.871Z,298.4
2019-04-20T14:50:01.065Z,298.4
2019-04-20T14:51:31.982Z,298.15
2019-04-20T14:53:03.296Z,297.96
2019-04-20T14:54:33.293Z,297.9
2019-04-20T14:56:05.293Z,297.84
2019-04-20T14:57:35.406Z,297.77
2019-04-20T14:59:05.691Z,297.71
2019-04-20T15:00:35.449Z,297.9
2019-04-20T15:02:06.491Z,298.15
2019-04-20T15:03:40.102Z,298.02
2019-04-20T15:05:26.257Z,298.02
2019-04-20T15:06:55.134Z,297.96
2019-04-20T15:08:24.836Z,297.71
2019-04-20T15:09:55.202Z,297.9
2019-04-20T15:11:26.870Z,297.65
2019-04-20T15:13:01.072Z,297.65
2019-04-20T15:14:36.593Z,297.96
2019-04-20T15:16:06.791Z,298.09
2019-04-20T15:17:37.484Z,298.15
2019-04-20T15:19:07.651Z,298.15
2019-04-20T15:20:39.444Z,298.15
2019-04-20T15:22:09.534Z,298.09
2019-04-20T15:23:41.584Z,298.02
2019-04-20T15:25:11.792Z,297.96
2019-04-20T15:26:42.544Z,298.15
2019-04-20T15:28:12.652Z,297.71
2019-04-20T15:29:44.191Z,297.9
2019-04-20T15:31:14.380Z,298.02
2019-04-20T15:32:44.990Z,297.9
2019-04-20T15:34:17.018Z,297.77
2019-04-20T15:35:46.104Z,297.96
2019-04-20T15:37:16.253Z,297.9
2019-04-20T15:38:49.314Z,297.9
2019-04-20T15:40:19.364Z,297.9
2019-04-20T15:41:49.453Z,297.9
2019-04-20T15:43:21.388Z,297.84
2019-04-20T15:44:53.483Z,297.96
2019-04-20T15:46:23.421Z,297.59
2019-04-20T15:47:59.477Z,297.71
2019-04-20T15:49:29.851Z,297.59
2019-04-20T15:50:59.777Z,297.46
2019-04-20T15:52:36.638Z,297.59
2019-04-20T15:54:21.613Z,297.52
2019-04-20T15:55:52.465Z,297.52
2019-04-20T15:57:25.626Z,297.52
2019-04-20T15:59:00.173Z,297.52
2019-04-20T16:00:30.251Z,297.4
2019-04-20T16:02:00.251Z,297.52
2019-04-20T16:03:29.599Z,297.52
2019-04-20T16:05:00.259Z,297.46
2019-04-20T16:06:31.349Z,297.52
2019-04-20T16:08:04.965Z,297.4
2019-04-20T16:09:36.094Z,297.46
2019-04-20T16:11:06.970Z,297.46
2019-04-20T16:12:38.532Z,297.02
2019-04-20T16:14:09.029Z,297.02
2019-04-20T16:15:40.413Z,297.21
2019-04-20T16:17:12.044Z,297.21
2019-04-20T16:18:41.294Z,297.15
2019-04-20T16:20:13.616Z,297.02
2019-04-20T16:21:52.174Z,297.02
2019-04-20T16:23:22.727Z,297.09
2019-04-20T16:24:53.363Z,297.02
2019-04-20T16:26:24.014Z,296.84
2019-04-20T16:27:53.815Z,296.9
2019-04-20T16:29:24.173Z,296.84
2019-04-20T16:30:55.866Z,296.65
2019-04-20T16:32:26.431Z,296.65
2019-04-20T16:33:58.271Z,296.77
2019-04-20T16:35:28.670Z,296.71
2019-04-20T16:36:59.590Z,296.77
2019-04-20T16:38:30.615Z,296.84
2019-04-20T16:40:00.776Z,296.59
2019-04-20T16:41:36.024Z,296.59
2019-04-20T16:43:17.558Z,296.65
2019-04-20T16:45:05.324Z,296.65
2019-04-20T16:46:36.263Z,296.59
2019-04-20T16:48:08.128Z,296.34
2019-04-20T16:49:39.112Z,296.46
2019-04-20T16:51:08.928Z,296.52
2019-04-20T16:52:38.865Z,296.15
2019-04-20T16:54:09.971Z,296.21
2019-04-20T16:55:40.927Z,296.15
2019-04-20T16:57:11.264Z,296.09
2019-04-20T16:58:41.896Z,296.02
2019-04-20T17:00:25.472Z,296.09
2019-04-20T17:01:56.130Z,295.9
2019-04-20T17:03:38.563Z,295.96
2019-04-20T17:05:37.011Z,295.96
2019-04-20T17:07:08.183Z,295.71
2019-04-20T17:08:40.887Z,295.65
2019-04-20T17:10:14.170Z,295.59
2019-04-20T17:11:47.724Z,295.46
2019-04-20T17:13:28.218Z,295.4
2019-04-20T17:15:19.373Z,295.09
2019-04-20T17:16:49.528Z,295.15
2019-04-20T17:18:19.541Z,295.02
2019-04-20T17:19:49.455Z,295.02
2019-04-20T17:21:23.376Z,294.96
2019-04-20T17:23:00.310Z,294.9
2019-04-20T17:24:35.611Z,294.65
2019-04-20T17:26:04.489Z,294.71
2019-04-20T17:27:37.111Z,294.59
2019-04-20T17:29:06.091Z,294.46
2019-04-20T17:30:37.885Z,294.27
2019-04-20T17:32:13.656Z,294.27
2019-04-20T17:33:53.249Z,294.21
2019-04-20T17:36:25.866Z,294.15
2019-04-20T17:38:04.739Z,294.09
2019-04-20T17:39:41.775Z,294.02
2019-04-20T17:42:28.594Z,293.84
2019-04-20T17:44:49.065Z,293.59
2019-04-20T17:47:03.389Z,293.52
2019-04-20T17:49:33.961Z,293.27
2019-04-20T17:52:17.322Z,293.15
2019-04-20T17:54:55.496Z,292.84
2019-04-20T17:56:26.402Z,292.9
2019-04-20T17:57:55.332Z,292.9
2019-04-20T17:59:34.535Z,292.9
2019-04-20T18:01:06.075Z,292.71
2019-04-20T18:03:57.394Z,292.71
2019-04-20T18:06:39.265Z,292.59
2019-04-20T18:09:44.421Z,292.59
2019-04-20T18:12:06.410Z,292.34
2019-04-20T18:14:28.038Z,292.34
2019-04-20T18:16:50.666Z,292.34
2019-04-20T18:19:17.845Z,292.34
2019-04-20T18:20:58.956Z,292.15
2019-04-20T18:22:27.891Z,292.09
2019-04-20T18:24:05.116Z,291.9
2019-04-20T18:26:57.475Z,291.77
2019-04-20T18:29:45.339Z,291.77
2019-04-20T18:32:05.241Z,291.46
2019-04-20T18:33:36.956Z,291.15
2019-04-20T18:35:08.336Z,290.96
2019-04-20T18:36:40.937Z,290.46
2019-04-20T18:38:18.440Z,290.21
2019-04-20T18:39:57.188Z,289.77
2019-04-20T18:41:51.804Z,289.4
2019-04-20T18:43:59.078Z,289.15
2019-04-20T18:45:39.354Z,289.02
2019-04-20T18:48:47.896Z,288.84
2019-04-20T18:51:01.754Z,288.65
2019-04-20T18:52:31.773Z,288.65
2019-04-20T18:54:08.127Z,288.71
2019-04-20T18:56:00.489Z,288.46
2019-04-20T18:57:34.588Z,288.4
2019-04-20T18:59:07.075Z,288.27
2019-04-20T19:00:42.537Z,288.46
2019-04-20T19:02:25.265Z,288.27
2019-04-20T19:04:14.207Z,287.96
2019-04-20T19:05:43.867Z,287.77
2019-04-20T19:07:14.095Z,287.84
2019-04-20T19:08:48.475Z,287.52
2019-04-20T19:10:27.095Z,287.46
2019-04-20T19:12:09.272Z,287.46
2019-04-20T19:13:43.543Z,287.4
2019-04-20T19:15:36.737Z,287.4
2019-04-20T19:17:56.503Z,287.21
2019-04-20T19:19:57.929Z,286.96
2019-04-20T19:21:33.395Z,287.02
2019-04-20T19:23:02.263Z,286.84
2019-04-20T19:24:34.927Z,286.77
2019-04-20T19:26:12.561Z,286.65
2019-04-20T19:27:53.813Z,286.4
2019-04-20T19:29:35.119Z,286.27
2019-04-20T19:32:07.164Z,285.96
2019-04-20T19:36:38.793Z,286.09
2019-04-20T19:39:00.636Z,286.21
2019-04-20T19:41:38.845Z,286.15
2019-04-20T19:44:09.882Z,285.65
2019-04-20T19:52:18.814Z,285.27
2019-04-20T19:55:27.074Z,285.27
2019-04-20T19:58:06.081Z,284.9
2019-04-20T20:00:18.907Z,285.27
2019-04-20T20:01:51.617Z,284.9
2019-04-20T20:03:23.728Z,284.9
2019-04-20T20:04:59.168Z,284.84
2019-04-20T20:06:45.935Z,284.9
2019-04-20T20:08:47.470Z,284.84
2019-04-20T20:10:37.973Z,284.77
2019-04-20T20:12:14.441Z,284.65
2019-04-20T20:13:50.029Z,284.65
2019-04-20T20:15:34.779Z,284.34
2019-04-20T20:17:26.653Z,284.21
2019-04-20T20:22:31.911Z,283.9
2019-04-20T20:24:17.939Z,283.84
2019-04-20T20:25:50.040Z,284.02
2019-04-20T20:27:30.238Z,283.77
2019-04-20T20:29:47.110Z,283.71
2019-04-20T20:32:09.847Z,283.59
2019-04-20T20:34:55.854Z,283.52
2019-04-20T20:37:00.362Z,283.59
2019-04-20T20:39:03.051Z,283.46
2019-04-20T20:41:08.598Z,283.34
2019-04-20T20:43:22.558Z,283.4
2019-04-20T20:45:39.394Z,283.27
2019-04-20T20:48:15.103Z,283.34
2019-04-20T20:50:36.269Z,283.27
2019-04-20T20:53:38.571Z,283.15
2019-04-20T20:55:43.941Z,283.02
2019-04-20T20:57:58.204Z,282.9
2019-04-20T21:00:06.171Z,283.09
2019-04-20T21:02:41.872Z,282.71
2019-04-20T21:04:33.408Z,282.71
2019-04-20T21:06:03.848Z,282.65
2019-04-20T21:07:34.410Z,282.71
2019-04-20T21:09:06.093Z,282.46
2019-04-20T21:10:40.919Z,282.4
2019-04-20T21:12:18.110Z,282.4
2019-04-20T21:13:54.007Z,282.46
2019-04-20T21:15:25.004Z,282.52
2019-04-20T21:17:04.823Z,282.27
2019-04-20T21:19:12.792Z,282.21
2019-04-20T21:21:50.303Z,282.4
2019-04-20T21:23:56.636Z,282.27
2019-04-20T21:25:48.814Z,282.15
2019-04-20T21:27:22.084Z,282.02
2019-04-20T21:28:52.418Z,281.9
2019-04-20T21:30:24.455Z,281.77
2019-04-20T21:32:15.881Z,281.71
2019-04-20T21:33:49.015Z,281.65
2019-04-20T21:35:19.854Z,281.65
2019-04-20T21:37:03.378Z,281.52
2019-04-20T21:38:51.822Z,281.59
2019-04-20T21:40:26.647Z,281.46
2019-04-20T21:42:17.947Z,281.46
2019-04-20T21:43:58.068Z,281.4
2019-04-20T21:45:56.293Z,281.34
2019-04-20T21:47:41.598Z,281.4
2019-04-20T21:49:26.109Z,281.4
2019-04-20T21:51:51.912Z,281.27
2019-04-20T21:53:48.501Z,281.34
2019-04-20T21:55:25.896Z,281.27
2019-04-20T21:57:01.502Z,281.34
2019-04-20T21:58:46.815Z,281.4
2019-04-20T22:00:42.180Z,281.15
2019-04-20T22:02:54.554Z,281.15
2019-04-20T22:04:37.534Z,281.09
2019-04-20T22:06:07.079Z,281.09
2019-04-20T22:07:38.816Z,281.15
2019-04-20T22:09:09.052Z,281.27
2019-04-20T22:10:38.729Z,281.15
2019-04-20T22:12:09.786Z,281.02
2019-04-20T22:13:42.560Z,280.96
2019-04-20T22:15:25.904Z,280.96
2019-04-20T22:17:21.035Z,280.84
2019-04-20T22:19:15.370Z,280.77
2019-04-20T22:21:43.474Z,280.71
2019-04-20T22:24:17.418Z,280.59
2019-04-20T22:26:52.217Z,280.65
2019-04-20T22:28:50.156Z,280.59
2019-04-20T22:30:22.022Z,280.59
2019-04-20T22:32:00.354Z,280.65
2019-04-20T22:33:45.009Z,280.65
2019-04-20T22:35:17.437Z,280.59
2019-04-20T22:36:52.084Z,280.52
2019-04-20T22:38:22.556Z,280.52
2019-04-20T22:39:55.742Z,280.59
2019-04-20T22:41:30.116Z,280.46
2019-04-20T22:43:01.992Z,280.4
2019-04-20T22:44:33.923Z,280.46
2019-04-20T22:46:03.322Z,280.4
2019-04-20T22:47:34.030Z,280.27
2019-04-20T22:49:20.298Z,280.21
2019-04-20T22:52:02.655Z,280.02
2019-04-20T22:54:19.973Z,280.21
2019-04-20T22:57:23.304Z,280.27
2019-04-20T22:59:53.862Z,280.15
2019-04-20T23:02:00.105Z,280.02
2019-04-20T23:03:36.822Z,280.09
2019-04-20T23:05:08.887Z,279.96
2019-04-20T23:06:43.935Z,279.84
2019-04-20T23:08:22.370Z,279.9
2019-04-20T23:09:54.492Z,279.84
2019-04-20T23:11:33.951Z,279.9
2019-04-20T23:13:07.362Z,279.96
2019-04-20T23:14:38.344Z,279.84
2019-04-20T23:16:09.245Z,279.84
2019-04-20T23:17:43.343Z,279.84
2019-04-20T23:19:28.597Z,279.77
2019-04-20T23:21:23.775Z,279.84
2019-04-20T23:22:54.757Z,279.9
2019-04-20T23:24:26.930Z,279.84
2019-04-20T23:25:58.867Z,279.84
2019-04-20T23:27:31.328Z,279.77
2019-04-20T23:29:07.027Z,279.71
2019-04-20T23:30:40.610Z,279.71
2019-04-20T23:32:24.916Z,279.52
2019-04-20T23:33:56.159Z,279.46
2019-04-20T23:35:52.310Z,279.34
2019-04-20T23:37:33.639Z,279.27
2019-04-20T23:39:10.769Z,279.27
2019-04-20T23:40:41.725Z,279.27
2019-04-20T23:42:12.545Z,279.27
2019-04-20T23:43:44.867Z,279.4
2019-04-20T23:45:38.645Z,279.27
2019-04-20T23:47:19.929Z,279.27
2019-04-20T23:48:50.106Z,279.27
2019-04-20T23:52:53.104Z,279.27
2019-04-20T23:55:18.746Z,278.96
2019-04-20T23:56:47.963Z,278.84
2019-04-20T23:58:19.986Z,278.96
2019-04-20T23:59:51.911Z,279.09
